Time;durP1;ratioP1;P1;durP2;ratioP2;P2;SDS_P1;SDS_P2;PMS_P1;PMS_P2;Temp;Humidity;BMP_temperature;BMP_pressure;BME280_temperature;BME280_humidity;BME280_pressure;Samples;Min_cycle;Max_cycle;Signal;HPM_P1;HPM_P2
2023/05/19 00:01:15;;;;;;;2.78;1.25;;;22.30;48.00;;;;;;5036535;28;20110;-69
2023/05/19 00:04:01;;;;;;;1.85;1.10;;;22.30;48.00;;;;;;5037935;28;20099;-70
2023/05/19 00:06:32;;;;;;;2.97;1.20;;;22.30;48.10;;;;;;5039661;28;20505;-69
2023/05/19 00:09:03;;;;;;;2.40;1.15;;;22.30;48.10;;;;;;5036165;28;20022;-69
2023/05/19 00:11:29;;;;;;;1.60;1.00;;;22.30;48.10;;;;;;5040471;28;20036;-69
2023/05/19 00:13:57;;;;;;;2.15;1.13;;;22.20;48.00;;;;;;5037222;28;20147;-69
2023/05/19 00:16:24;;;;;;;2.03;1.00;;;22.20;48.00;;;;;;5035309;28;20025;-69
2023/05/19 00:18:50;;;;;;;2.15;1.02;;;22.20;48.10;;;;;;5039190;28;20031;-68
2023/05/19 00:21:16;;;;;;;2.20;1.10;;;22.20;48.10;;;;;;5038978;28;20029;-70
2023/05/19 00:23:42;;;;;;;2.10;1.05;;;22.20;48.10;;;;;;5036436;28;20370;-68
2023/05/19 00:26:08;;;;;;;2.03;1.10;;;22.20;48.10;;;;;;5037726;28;20045;-69
2023/05/19 00:28:34;;;;;;;1.55;0.95;;;22.20;48.10;;;;;;5038308;28;20465;-69
2023/05/19 00:31:00;;;;;;;1.52;0.90;;;22.20;48.20;;;;;;5037536;28;20103;-69
2023/05/19 00:33:26;;;;;;;2.03;1.25;;;22.20;48.20;;;;;;5038753;28;20088;-69
2023/05/19 00:35:52;;;;;;;2.53;1.10;;;22.20;48.20;;;;;;5039297;28;20103;-70
2023/05/19 00:38:17;;;;;;;1.67;0.93;;;22.20;48.20;;;;;;5037045;28;20454;-70
2023/05/19 00:40:44;;;;;;;2.03;1.05;;;22.20;48.20;;;;;;5038188;28;20025;-69
2023/05/19 00:43:09;;;;;;;2.13;1.27;;;22.20;48.20;;;;;;5037755;28;20409;-69
2023/05/19 00:45:35;;;;;;;1.90;1.00;;;22.20;48.30;;;;;;5038577;28;20052;-70
2023/05/19 00:48:01;;;;;;;1.70;0.88;;;22.20;48.20;;;;;;5036321;28;20024;-69
2023/05/19 00:50:27;;;;;;;2.00;1.15;;;22.10;48.20;;;;;;5038290;28;20037;-70
2023/05/19 00:52:56;;;;;;;1.08;0.80;;;22.10;48.20;;;;;;5037072;28;20152;-70
2023/05/19 00:55:25;;;;;;;1.55;1.00;;;22.10;48.20;;;;;;5038082;28;20029;-65
2023/05/19 00:57:51;;;;;;;2.22;1.05;;;22.10;48.70;;;;;;5033160;28;20030;-69
2023/05/19 01:00:17;;;;;;;1.27;0.90;;;22.10;48.30;;;;;;5040347;28;20401;-69
2023/05/19 01:02:43;;;;;;;2.28;1.10;;;22.10;48.30;;;;;;5036837;28;20017;-70
2023/05/19 01:05:09;;;;;;;1.98;1.17;;;22.10;48.30;;;;;;5037397;28;20030;-70
2023/05/19 01:07:35;;;;;;;1.73;1.00;;;22.10;48.30;;;;;;5039109;28;20361;-68
2023/05/19 01:10:01;;;;;;;1.65;0.95;;;22.10;48.30;;;;;;5035015;28;20078;-69
2023/05/19 01:12:28;;;;;;;2.20;1.00;;;22.10;48.30;;;;;;5035639;28;20056;-69
2023/05/19 01:14:55;;;;;;;2.28;1.05;;;22.00;48.30;;;;;;5033817;28;20026;-70
2023/05/19 01:17:29;;;;;;;1.60;1.00;;;22.00;48.30;;;;;;5036328;28;20096;-69
2023/05/19 01:20:13;;;;;;;1.92;1.10;;;22.00;48.40;;;;;;5041926;28;20037;-69
2023/05/19 01:23:06;;;;;;;1.92;1.00;;;22.00;48.30;;;;;;5035600;28;20461;-70
2023/05/19 01:26:15;;;;;;;1.70;1.10;;;22.00;48.30;;;;;;5033958;28;20504;-69
2023/05/19 01:28:52;;;;;;;1.95;1.08;;;22.00;48.40;;;;;;5036666;28;20171;-69
2023/05/19 01:31:22;;;;;;;1.65;1.10;;;22.00;48.40;;;;;;5034179;28;20396;-68
2023/05/19 01:33:49;;;;;;;1.88;1.00;;;22.00;48.40;;;;;;5038620;28;20498;-69
2023/05/19 01:36:16;;;;;;;1.75;1.00;;;22.00;48.40;;;;;;5036485;28;20386;-69
2023/05/19 01:38:42;;;;;;;1.58;1.10;;;22.00;48.40;;;;;;5038598;28;20472;-68
2023/05/19 01:41:09;;;;;;;2.00;1.10;;;22.00;48.40;;;;;;5037791;28;20029;-69
2023/05/19 01:43:35;;;;;;;2.53;1.00;;;22.00;48.50;;;;;;5039533;28;20116;-71
2023/05/19 01:46:02;;;;;;;1.52;1.00;;;22.00;48.50;;;;;;5036685;28;20114;-69
2023/05/19 01:48:28;;;;;;;1.63;0.90;;;21.90;48.40;;;;;;5035938;28;20560;-69
2023/05/19 01:50:56;;;;;;;2.03;1.00;;;21.90;48.50;;;;;;5036189;28;20121;-69
2023/05/19 01:53:22;;;;;;;2.25;1.20;;;21.90;48.50;;;;;;5037651;28;20064;-69
2023/05/19 01:55:49;;;;;;;2.45;1.20;;;21.90;48.50;;;;;;5035626;28;20029;-69
2023/05/19 01:58:31;;;;;;;2.30;1.20;;;21.90;48.50;;;;;;5037872;28;20021;-69
2023/05/19 02:01:34;;;;;;;1.80;1.00;;;21.90;48.50;;;;;;5037525;28;20144;-69
2023/05/19 02:04:28;;;;;;;2.25;1.17;;;21.90;48.50;;;;;;5037438;28;20033;-69
2023/05/19 02:06:56;;;;;;;1.83;1.00;;;21.90;48.50;;;;;;5042152;28;20033;-69
2023/05/19 02:09:54;;;;;;;2.22;1.20;;;21.90;48.50;;;;;;5043438;28;20201;-69
2023/05/19 02:12:36;;;;;;;1.77;1.02;;;21.90;48.50;;;;;;5041481;28;20536;-68
2023/05/19 02:15:20;;;;;;;1.45;1.00;;;21.90;48.60;;;;;;5039989;28;20132;-69
2023/05/19 02:17:49;;;;;;;1.50;1.10;;;21.90;48.60;;;;;;5038883;28;20444;-69
2023/05/19 02:20:15;;;;;;;2.17;1.10;;;21.90;48.60;;;;;;5039478;28;20029;-70
2023/05/19 02:22:40;;;;;;;1.50;1.02;;;21.90;48.60;;;;;;5038692;28;20030;-68
2023/05/19 02:25:07;;;;;;;1.42;1.00;;;21.80;48.60;;;;;;5040071;28;20036;-69
2023/05/19 02:27:35;;;;;;;1.92;1.00;;;21.90;48.70;;;;;;5039000;28;20025;-69
2023/05/19 02:30:01;;;;;;;2.65;1.15;;;21.90;48.70;;;;;;5041953;28;20033;-69
2023/05/19 02:32:26;;;;;;;1.80;1.00;;;21.80;48.60;;;;;;5039003;28;20044;-68
2023/05/19 02:34:52;;;;;;;1.83;0.98;;;21.80;48.60;;;;;;5039159;28;20029;-69
2023/05/19 02:37:17;;;;;;;1.90;1.02;;;21.80;48.60;;;;;;5038186;28;20040;-69
2023/05/19 02:39:43;;;;;;;1.60;1.00;;;21.80;48.60;;;;;;5036897;28;20104;-69
2023/05/19 02:42:09;;;;;;;1.55;1.00;;;21.80;48.60;;;;;;5037133;28;20443;-69
2023/05/19 02:44:35;;;;;;;1.20;0.90;;;21.80;48.60;;;;;;5036704;28;20368;-70
2023/05/19 02:47:01;;;;;;;1.27;0.80;;;21.80;48.60;;;;;;5037778;28;20120;-69
2023/05/19 02:49:29;;;;;;;1.52;1.00;;;21.80;48.60;;;;;;5040327;28;20481;-69
2023/05/19 02:51:55;;;;;;;1.90;1.00;;;21.80;49.10;;;;;;5055881;28;20536;-69
2023/05/19 02:54:21;;;;;;;2.13;1.08;;;21.80;48.60;;;;;;5038324;28;20436;-69
2023/05/19 02:56:46;;;;;;;2.10;1.13;;;21.80;48.60;;;;;;5041423;28;20321;-69
2023/05/19 02:59:12;;;;;;;1.48;0.88;;;21.70;48.60;;;;;;5043021;28;20105;-69
2023/05/19 03:01:39;;;;;;;1.60;1.00;;;21.70;48.60;;;;;;5040155;28;20051;-69
2023/05/19 03:04:04;;;;;;;1.58;0.95;;;21.70;48.60;;;;;;5037963;28;20125;-69
2023/05/19 03:06:31;;;;;;;1.75;1.13;;;21.70;48.60;;;;;;5040191;28;20160;-69
2023/05/19 03:08:57;;;;;;;1.45;1.00;;;21.70;48.60;;;;;;5038508;28;20021;-69
2023/05/19 03:11:22;;;;;;;1.30;0.90;;;21.70;48.70;;;;;;5038668;28;20044;-70
2023/05/19 03:13:48;;;;;;;1.52;0.93;;;21.70;48.70;;;;;;5040355;28;20076;-68
2023/05/19 03:16:14;;;;;;;1.13;0.80;;;21.70;48.70;;;;;;5037714;28;20373;-69
2023/05/19 03:18:40;;;;;;;1.25;0.85;;;21.70;48.70;;;;;;5037703;28;20111;-68
2023/05/19 03:21:06;;;;;;;1.67;1.00;;;21.70;48.70;;;;;;5037484;28;20029;-69
2023/05/19 03:23:31;;;;;;;1.65;1.00;;;21.70;48.80;;;;;;5039267;28;20021;-69
2023/05/19 03:25:57;;;;;;;1.75;1.00;;;21.70;48.80;;;;;;5038493;28;20230;-69
2023/05/19 03:28:23;;;;;;;1.52;1.02;;;21.70;48.80;;;;;;5039455;28;20481;-69
2023/05/19 03:30:51;;;;;;;1.27;0.90;;;21.70;48.80;;;;;;5039933;28;20037;-70
2023/05/19 03:33:17;;;;;;;2.03;0.95;;;21.70;48.80;;;;;;5037169;28;20021;-69
2023/05/19 03:35:43;;;;;;;1.63;1.10;;;21.70;48.80;;;;;;5039821;28;20040;-68
2023/05/19 03:38:09;;;;;;;1.40;0.90;;;21.60;48.80;;;;;;5038404;28;20448;-69
2023/05/19 03:40:35;;;;;;;1.80;1.10;;;21.70;48.80;;;;;;5039467;28;20044;-70
2023/05/19 03:43:00;;;;;;;1.45;0.95;;;21.60;48.80;;;;;;5038726;28;20112;-69
2023/05/19 03:45:26;;;;;;;1.58;0.90;;;21.60;48.80;;;;;;5036259;28;20033;-69
2023/05/19 03:47:52;;;;;;;1.92;1.20;;;21.60;48.80;;;;;;5037485;28;20465;-69
2023/05/19 03:50:18;;;;;;;1.45;1.00;;;21.60;48.80;;;;;;5038327;28;20087;-69
2023/05/19 03:52:45;;;;;;;1.60;1.00;;;21.60;48.80;;;;;;5038688;28;20136;-69
2023/05/19 03:55:11;;;;;;;2.00;0.90;;;21.60;48.80;;;;;;5039552;28;20147;-68
2023/05/19 03:57:36;;;;;;;2.17;1.00;;;21.60;48.80;;;;;;5038547;28;20192;-69
2023/05/19 04:00:04;;;;;;;1.50;0.90;;;21.60;48.90;;;;;;5037186;28;20049;-67
2023/05/19 04:02:30;;;;;;;0.93;0.77;;;21.60;48.90;;;;;;5051804;28;20024;-68
2023/05/19 04:04:56;;;;;;;1.63;1.02;;;21.60;48.90;;;;;;5038259;28;20029;-70
2023/05/19 04:07:22;;;;;;;1.42;0.90;;;21.60;48.90;;;;;;5039178;28;20117;-68
2023/05/19 04:09:48;;;;;;;1.60;0.95;;;21.60;48.90;;;;;;5045198;28;20496;-68
2023/05/19 04:12:14;;;;;;;1.27;0.90;;;21.60;48.90;;;;;;5037934;28;20038;-65
2023/05/19 04:14:40;;;;;;;1.58;0.82;;;21.60;48.90;;;;;;5037026;28;20082;-69
2023/05/19 04:17:05;;;;;;;1.63;1.00;;;21.50;48.90;;;;;;5037425;28;20043;-67
2023/05/19 04:19:31;;;;;;;1.38;0.90;;;21.50;48.80;;;;;;5039469;28;20021;-69
2023/05/19 04:21:57;;;;;;;1.90;1.00;;;21.50;48.80;;;;;;5039230;28;20021;-69
2023/05/19 04:24:22;;;;;;;1.70;1.13;;;21.60;48.90;;;;;;5038859;28;20037;-69
2023/05/19 04:26:48;;;;;;;1.90;1.00;;;21.50;48.80;;;;;;5038572;28;20057;-69
2023/05/19 04:29:16;;;;;;;1.50;0.90;;;21.50;48.80;;;;;;5038360;28;20093;-69
2023/05/19 04:31:43;;;;;;;1.65;1.00;;;21.50;48.90;;;;;;5037437;28;20465;-70
2023/05/19 04:34:09;;;;;;;1.60;1.00;;;21.50;48.90;;;;;;5038935;28;20032;-69
2023/05/19 04:36:36;;;;;;;1.63;1.00;;;21.60;48.90;;;;;;5037031;28;20078;-70
2023/05/19 04:39:06;;;;;;;1.50;0.98;;;21.50;48.80;;;;;;5037069;28;20051;-69
2023/05/19 04:41:32;;;;;;;2.10;1.10;;;21.50;48.80;;;;;;5039641;28;20388;-69
2023/05/19 04:43:58;;;;;;;1.83;1.10;;;21.50;48.90;;;;;;5037127;28;20035;-70
2023/05/19 04:46:25;;;;;;;1.77;1.00;;;21.50;49.40;;;;;;5036274;28;20071;-69
2023/05/19 04:48:51;;;;;;;1.65;1.10;;;21.50;48.90;;;;;;5037106;28;20041;-70
2023/05/19 04:51:18;;;;;;;1.55;1.00;;;21.50;48.90;;;;;;5037514;28;20114;-69
2023/05/19 04:53:44;;;;;;;1.98;1.00;;;21.50;48.90;;;;;;5038884;28;20025;-69
2023/05/19 04:56:13;;;;;;;1.65;1.00;;;21.50;48.90;;;;;;5040833;28;20032;-69
2023/05/19 04:58:43;;;;;;;;;;;21.50;49.50;;;;;;5036763;28;20469;-69
2023/05/19 05:01:08;;;;;;;;;;;21.50;48.90;;;;;;5038660;28;19947;-69
2023/05/19 05:03:34;;;;;;;2.45;1.10;;;21.50;48.90;;;;;;5034152;28;19971;-69
2023/05/19 05:06:00;;;;;;;1.30;0.90;;;21.50;48.90;;;;;;5038111;28;20030;-69
2023/05/19 05:08:26;;;;;;;1.15;0.90;;;21.50;48.90;;;;;;5038612;28;20049;-69
2023/05/19 05:10:52;;;;;;;1.70;1.05;;;21.40;48.90;;;;;;5038097;28;20030;-69
2023/05/19 05:13:21;;;;;;;1.63;1.00;;;21.50;48.90;;;;;;5044443;28;20457;-69
2023/05/19 05:15:47;;;;;;;2.15;0.98;;;21.50;49.00;;;;;;5038767;28;20056;-68
2023/05/19 05:18:14;;;;;;;1.42;0.90;;;21.40;48.90;;;;;;5036556;28;20488;-69
2023/05/19 05:20:41;;;;;;;2.03;1.10;;;21.40;49.00;;;;;;5035935;28;20028;-69
2023/05/19 05:23:08;;;;;;;2.03;0.98;;;21.40;49.00;;;;;;5038237;28;20036;-69
2023/05/19 05:25:34;;;;;;;1.42;1.00;;;21.40;49.00;;;;;;5038302;28;20029;-69
2023/05/19 05:28:03;;;;;;;1.63;1.00;;;21.40;49.00;;;;;;5037687;28;20038;-69
2023/05/19 05:30:29;;;;;;;1.02;0.80;;;21.40;49.10;;;;;;5037957;28;20032;-69
2023/05/19 05:32:56;;;;;;;1.50;0.90;;;21.40;49.00;;;;;;5038680;28;20053;-69
2023/05/19 05:35:23;;;;;;;1.48;0.90;;;21.40;49.00;;;;;;5035817;28;20030;-68
2023/05/19 05:37:49;;;;;;;1.98;1.05;;;21.40;49.20;;;;;;5037389;28;20049;-68
2023/05/19 05:40:14;;;;;;;1.30;0.82;;;21.40;49.20;;;;;;5042168;28;20353;-68
2023/05/19 05:42:41;;;;;;;1.90;1.00;;;21.40;49.20;;;;;;5040415;28;20033;-67
2023/05/19 05:45:07;;;;;;;1.92;1.10;;;21.40;49.20;;;;;;5043459;28;20470;-68
2023/05/19 05:47:36;;;;;;;1.90;1.05;;;21.40;49.20;;;;;;5041017;28;20081;-68
2023/05/19 05:50:03;;;;;;;1.25;0.88;;;21.40;49.30;;;;;;5041463;28;20104;-68
2023/05/19 05:52:30;;;;;;;1.13;0.77;;;21.40;49.30;;;;;;5039986;28;20115;-68
2023/05/19 05:54:56;;;;;;;1.77;1.00;;;21.50;49.30;;;;;;5039405;28;20053;-68
2023/05/19 05:57:22;;;;;;;2.35;1.00;;;21.50;49.40;;;;;;5040589;28;20071;-68
2023/05/19 05:59:47;;;;;;;2.42;1.15;;;21.50;49.40;;;;;;5039440;28;20330;-68
2023/05/19 06:02:13;;;;;;;1.90;1.10;;;21.50;49.40;;;;;;5039371;28;20393;-68
2023/05/19 06:04:39;;;;;;;2.42;1.20;;;21.50;49.30;;;;;;5038986;28;20370;-68
2023/05/19 06:07:05;;;;;;;1.83;1.08;;;21.50;49.30;;;;;;5039547;28;20506;-69
2023/05/19 06:09:31;;;;;;;1.90;1.10;;;21.60;49.40;;;;;;5036741;28;20032;-68
2023/05/19 06:11:58;;;;;;;1.48;0.95;;;21.60;49.40;;;;;;5040794;28;20527;-67
2023/05/19 06:14:24;;;;;;;1.67;1.00;;;21.60;49.40;;;;;;5040904;28;20025;-67
2023/05/19 06:16:50;;;;;;;2.00;1.08;;;21.70;49.40;;;;;;5042121;28;20025;-68
2023/05/19 06:19:16;;;;;;;1.23;0.82;;;21.80;49.30;;;;;;5041363;28;20363;-67
2023/05/19 06:21:42;;;;;;;2.08;1.00;;;21.90;49.10;;;;;;5041561;28;20036;-67
2023/05/19 06:24:08;;;;;;;1.83;1.00;;;22.00;48.90;;;;;;5040887;28;20037;-67
2023/05/19 06:26:33;;;;;;;2.55;1.48;;;22.10;48.80;;;;;;5041856;28;20060;-67
2023/05/19 06:28:59;;;;;;;2.83;1.10;;;22.10;48.60;;;;;;5037029;28;20029;-68
2023/05/19 06:31:26;;;;;;;2.08;1.20;;;22.20;48.50;;;;;;5038482;28;20028;-68
2023/05/19 06:33:52;;;;;;;2.10;1.08;;;22.20;48.30;;;;;;5038526;28;20163;-68
2023/05/19 06:36:18;;;;;;;3.03;1.10;;;22.20;48.30;;;;;;5040935;28;20048;-68
2023/05/19 06:38:43;;;;;;;2.22;1.10;;;22.20;48.30;;;;;;5039572;28;20470;-68
2023/05/19 06:41:09;;;;;;;2.58;1.38;;;22.20;48.40;;;;;;5040496;28;20357;-68
2023/05/19 06:43:35;;;;;;;2.40;1.20;;;22.20;48.40;;;;;;5040243;28;20504;-68
2023/05/19 06:46:01;;;;;;;2.08;1.17;;;22.20;48.40;;;;;;5039770;28;20481;-68
2023/05/19 06:48:26;;;;;;;2.78;1.30;;;22.20;48.40;;;;;;5041109;28;20049;-68
2023/05/19 06:50:52;;;;;;;2.50;1.27;;;22.20;48.40;;;;;;5038026;28;20437;-68
2023/05/19 06:53:19;;;;;;;3.15;1.30;;;22.20;48.40;;;;;;5039876;28;20060;-68
2023/05/19 06:55:45;;;;;;;1.85;1.10;;;22.20;48.50;;;;;;5039198;28;20158;-68
2023/05/19 06:58:11;;;;;;;3.35;1.20;;;22.20;48.50;;;;;;5041402;28;20160;-68
2023/05/19 07:00:36;;;;;;;2.20;1.13;;;22.20;48.50;;;;;;5039920;28;20122;-68
2023/05/19 07:03:02;;;;;;;2.33;1.30;;;22.30;48.40;;;;;;5039228;28;20028;-68
2023/05/19 07:05:27;;;;;;;3.88;1.20;;;22.30;48.40;;;;;;5039073;28;20041;-68
2023/05/19 07:07:53;;;;;;;3.17;1.23;;;22.30;48.40;;;;;;5038053;28;20039;-68
2023/05/19 07:10:20;;;;;;;3.40;1.30;;;22.30;48.40;;;;;;5038727;28;20039;-68
2023/05/19 07:12:46;;;;;;;2.03;0.90;;;22.30;48.40;;;;;;5040194;28;20026;-68
2023/05/19 07:15:11;;;;;;;2.10;1.00;;;22.30;48.30;;;;;;5036005;28;20031;-68
2023/05/19 07:17:37;;;;;;;2.00;1.30;;;22.40;48.80;;;;;;5037064;28;20082;-68
2023/05/19 07:20:05;;;;;;;2.30;0.98;;;22.40;48.30;;;;;;5038615;28;20021;-68
2023/05/19 07:22:33;;;;;;;2.03;1.00;;;22.40;48.30;;;;;;5051155;28;20099;-68
2023/05/19 07:24:59;;;;;;;1.90;1.20;;;22.40;48.30;;;;;;5040199;28;20095;-68
2023/05/19 07:27:25;;;;;;;2.42;1.30;;;22.40;48.30;;;;;;5039540;28;20034;-68
2023/05/19 07:29:51;;;;;;;3.42;1.50;;;22.40;48.30;;;;;;5036320;28;20044;-68
2023/05/19 07:32:17;;;;;;;2.95;1.10;;;22.50;48.40;;;;;;5040470;28;20099;-68
2023/05/19 07:34:42;;;;;;;2.22;1.17;;;22.50;48.40;;;;;;5036718;28;20021;-67
2023/05/19 07:37:08;;;;;;;2.22;1.10;;;22.50;48.30;;;;;;5039134;28;20037;-67
2023/05/19 07:39:34;;;;;;;2.25;1.10;;;22.50;48.30;;;;;;5038437;28;20078;-68
2023/05/19 07:42:00;;;;;;;2.13;1.00;;;22.50;48.30;;;;;;5038968;28;20098;-68
2023/05/19 07:44:26;;;;;;;1.58;0.95;;;22.50;48.20;;;;;;5040439;28;20024;-68
2023/05/19 07:46:53;;;;;;;2.28;1.23;;;22.50;48.30;;;;;;5040238;28;20036;-68
2023/05/19 07:49:18;;;;;;;2.05;1.17;;;22.50;48.30;;;;;;5037363;28;20136;-69
2023/05/19 07:51:45;;;;;;;2.28;1.00;;;22.50;48.20;;;;;;5039143;28;20489;-68
2023/05/19 07:54:10;;;;;;;1.83;1.05;;;22.50;48.20;;;;;;5038035;28;20040;-68
2023/05/19 07:56:36;;;;;;;2.10;1.08;;;22.50;48.20;;;;;;5040581;28;20411;-68
2023/05/19 07:59:03;;;;;;;1.77;1.00;;;22.60;48.20;;;;;;5038129;28;20021;-67
2023/05/19 08:01:29;;;;;;;2.00;1.10;;;22.60;48.20;;;;;;5037431;28;20063;-68
2023/05/19 08:03:55;;;;;;;2.10;1.10;;;22.60;48.20;;;;;;5038883;28;20025;-68
2023/05/19 08:06:21;;;;;;;2.17;1.17;;;22.60;48.20;;;;;;5036778;28;20036;-68
2023/05/19 08:08:47;;;;;;;3.28;1.00;;;22.60;48.20;;;;;;5040881;28;20158;-68
2023/05/19 08:11:12;;;;;;;1.70;1.00;;;22.60;48.30;;;;;;5043136;28;20026;-68
2023/05/19 08:13:38;;;;;;;1.65;0.85;;;22.60;48.30;;;;;;5038107;28;20040;-67
2023/05/19 08:16:04;;;;;;;1.35;0.90;;;22.60;48.20;;;;;;5039082;28;20530;-68
2023/05/19 08:18:30;;;;;;;1.33;0.88;;;22.70;48.20;;;;;;5042745;28;20021;-68
2023/05/19 08:20:55;;;;;;;1.52;1.08;;;22.70;48.20;;;;;;5041266;28;20097;-68
2023/05/19 08:23:21;;;;;;;1.60;0.85;;;22.60;48.10;;;;;;5040153;28;20105;-68
2023/05/19 08:25:47;;;;;;;1.50;1.00;;;22.70;48.20;;;;;;5043674;28;20040;-68
2023/05/19 08:28:13;;;;;;;2.30;1.20;;;22.70;48.10;;;;;;5040940;28;20083;-68
2023/05/19 08:30:38;;;;;;;1.90;1.00;;;22.70;48.20;;;;;;5039502;28;20087;-68
2023/05/19 08:33:04;;;;;;;1.85;1.00;;;22.70;48.10;;;;;;5040571;28;20393;-67
2023/05/19 08:35:29;;;;;;;1.48;1.10;;;22.70;48.20;;;;;;5041529;28;20033;-68
2023/05/19 08:37:55;;;;;;;1.30;0.90;;;22.70;48.30;;;;;;5039539;28;20021;-68
2023/05/19 08:40:22;;;;;;;2.58;0.82;;;22.70;48.20;;;;;;5039411;28;20045;-67
2023/05/19 08:42:48;;;;;;;2.42;1.10;;;22.70;48.20;;;;;;5043641;28;20088;-68
2023/05/19 08:45:14;;;;;;;2.17;1.00;;;22.70;48.10;;;;;;5044900;28;20029;-68
2023/05/19 08:47:41;;;;;;;2.10;1.10;;;22.70;48.10;;;;;;5038021;28;20029;-67
2023/05/19 08:50:09;;;;;;;1.85;0.95;;;22.70;48.20;;;;;;5022468;28;20115;-68
2023/05/19 08:52:52;;;;;;;1.85;1.05;;;22.70;48.10;;;;;;5039099;28;20021;-68
2023/05/19 08:55:59;;;;;;;3.03;1.10;;;22.80;48.10;;;;;;5040162;28;20021;-68
2023/05/19 08:58:26;;;;;;;1.60;0.90;;;22.80;48.10;;;;;;5035694;28;20116;-68
2023/05/19 09:00:54;;;;;;;3.42;1.65;;;22.80;48.00;;;;;;5037750;28;20101;-68
2023/05/19 09:03:21;;;;;;;2.03;1.00;;;22.80;48.00;;;;;;5037371;28;20412;-68
2023/05/19 09:05:47;;;;;;;1.88;1.00;;;22.80;48.00;;;;;;5038129;28;20052;-68
2023/05/19 09:08:13;;;;;;;1.80;1.13;;;22.80;48.00;;;;;;5039457;28;20072;-68
2023/05/19 09:10:39;;;;;;;1.73;1.08;;;22.80;48.00;;;;;;5039749;28;20471;-68
2023/05/19 09:13:05;;;;;;;2.10;1.10;;;22.80;48.00;;;;;;5037352;28;20322;-68
2023/05/19 09:15:32;;;;;;;1.58;1.00;;;22.80;48.00;;;;;;5038946;28;20033;-68
2023/05/19 09:18:09;;;;;;;2.50;1.00;;;22.80;48.00;;;;;;5037586;28;20030;-68
2023/05/19 09:20:44;;;;;;;2.00;1.00;;;22.80;48.00;;;;;;5036914;28;20021;-67
2023/05/19 09:23:15;;;;;;;1.50;0.90;;;22.80;47.90;;;;;;5068377;28;20028;-68
2023/05/19 09:25:47;;;;;;;1.80;1.10;;;22.80;47.90;;;;;;5036349;28;20029;-68
2023/05/19 09:28:13;;;;;;;1.65;0.98;;;22.80;47.90;;;;;;5038017;28;20444;-68
2023/05/19 09:30:38;;;;;;;1.45;0.93;;;22.80;47.90;;;;;;5037537;28;20044;-68
2023/05/19 09:33:08;;;;;;;1.45;1.00;;;22.90;47.90;;;;;;5035800;28;20485;-68
2023/05/19 09:35:35;;;;;;;1.20;0.90;;;22.80;47.80;;;;;;5036518;28;20192;-68
2023/05/19 09:38:00;;;;;;;1.92;1.10;;;22.80;47.80;;;;;;5034723;28;20426;-68
2023/05/19 09:40:30;;;;;;;1.60;1.08;;;22.80;47.80;;;;;;5036547;28;20037;-68
2023/05/19 09:42:56;;;;;;;1.77;1.00;;;22.80;47.80;;;;;;5037058;28;20527;-68
2023/05/19 09:45:22;;;;;;;2.00;1.10;;;22.80;47.80;;;;;;5038154;28;20033;-67
2023/05/19 09:47:47;;;;;;;2.00;1.10;;;22.80;47.80;;;;;;5044068;28;20033;-68
2023/05/19 09:50:13;;;;;;;2.58;1.10;;;22.90;47.80;;;;;;5035896;28;20041;-67
2023/05/19 09:52:42;;;;;;;1.35;0.82;;;22.90;47.80;;;;;;5037716;28;20033;-68
2023/05/19 09:55:12;;;;;;;2.00;1.25;;;22.80;47.70;;;;;;5036102;28;20084;-68
2023/05/19 09:57:39;;;;;;;1.65;1.02;;;22.80;47.70;;;;;;5035451;28;20036;-68
2023/05/19 10:00:23;;;;;;;1.77;1.02;;;22.90;47.80;;;;;;5037481;28;20120;-68
2023/05/19 10:02:49;;;;;;;1.23;0.88;;;22.90;47.70;;;;;;5033462;28;20123;-68
2023/05/19 10:05:18;;;;;;;1.58;0.98;;;22.90;47.70;;;;;;5034924;28;20029;-68
2023/05/19 10:07:47;;;;;;;1.85;1.00;;;22.90;47.70;;;;;;5039338;28;20029;-68
2023/05/19 10:10:13;;;;;;;1.43;0.90;;;22.90;47.70;;;;;;5039175;28;20141;-68
2023/05/19 10:12:40;;;;;;;1.75;1.00;;;22.90;47.70;;;;;;5035581;28;20092;-67
2023/05/19 10:15:10;;;;;;;2.63;1.27;;;22.90;47.70;;;;;;5036739;28;20473;-67
2023/05/19 10:17:41;;;;;;;2.28;1.10;;;22.90;47.60;;;;;;5035709;28;20453;-67
2023/05/19 10:20:12;;;;;;;2.33;1.10;;;22.90;47.70;;;;;;5034998;28;20067;-67
2023/05/19 10:22:39;;;;;;;2.00;1.08;;;22.90;47.70;;;;;;5033500;28;20039;-67
2023/05/19 10:25:06;;;;;;;2.03;1.00;;;22.90;47.70;;;;;;5038014;28;20029;-67
2023/05/19 10:27:35;;;;;;;1.83;1.20;;;22.90;47.60;;;;;;5047427;28;20060;-68
2023/05/19 10:30:08;;;;;;;1.50;1.05;;;22.90;47.70;;;;;;5072753;28;20136;-68
2023/05/19 10:32:35;;;;;;;1.60;1.00;;;22.90;47.70;;;;;;5041384;28;20044;-69
2023/05/19 10:35:34;;;;;;;2.42;1.00;;;22.90;47.70;;;;;;5040741;28;20025;-69
2023/05/19 10:38:09;;;;;;;;;;;22.90;47.70;;;;;;5040842;28;20034;-70
2023/05/19 10:40:52;;;;;;;1.65;1.00;;;22.90;47.60;;;;;;5041473;28;19908;-69
2023/05/19 10:43:28;;;;;;;1.45;0.90;;;22.90;47.60;;;;;;5040684;28;20034;-70
2023/05/19 10:45:55;;;;;;;1.45;0.90;;;22.90;47.60;;;;;;5040392;28;20087;-70
2023/05/19 10:48:22;;;;;;;1.27;0.90;;;22.90;47.70;;;;;;5041112;28;20505;-70
2023/05/19 10:50:51;;;;;;;2.03;1.10;;;22.90;47.70;;;;;;5038121;28;20060;-70
2023/05/19 10:53:19;;;;;;;1.98;1.02;;;22.90;47.70;;;;;;5070436;28;20484;-69
2023/05/19 10:55:50;;;;;;;2.10;1.10;;;22.90;47.70;;;;;;5039319;28;20101;-70
2023/05/19 10:58:35;;;;;;;1.45;0.93;;;22.90;47.70;;;;;;5072127;28;20362;-70
2023/05/19 11:01:01;;;;;;;1.95;1.05;;;22.90;47.80;;;;;;5040722;28;20067;-71
2023/05/19 11:03:27;;;;;;;1.30;0.98;;;22.90;47.80;;;;;;5038957;28;20049;-69
2023/05/19 11:06:16;;;;;;;2.20;0.90;;;22.90;47.80;;;;;;5039829;28;20021;-71
2023/05/19 11:08:42;;;;;;;2.35;1.20;;;22.90;47.80;;;;;;5041134;28;20037;-69
2023/05/19 11:11:15;;;;;;;1.85;1.00;;;22.90;47.80;;;;;;5038400;28;20037;-69
2023/05/19 11:13:45;;;;;;;1.35;0.90;;;22.90;47.80;;;;;;5040701;28;20033;-70
2023/05/19 11:16:11;;;;;;;1.70;1.00;;;22.90;47.80;;;;;;5039275;28;20054;-69
2023/05/19 11:18:37;;;;;;;1.50;0.90;;;22.90;47.80;;;;;;5046587;28;20504;-70
2023/05/19 11:21:02;;;;;;;2.05;1.05;;;22.90;47.80;;;;;;5037850;28;20026;-70
2023/05/19 11:23:32;;;;;;;1.80;1.00;;;22.90;47.80;;;;;;5041376;28;20041;-70
2023/05/19 11:26:01;;;;;;;2.00;1.15;;;22.90;47.80;;;;;;5039652;28;20047;-70
2023/05/19 11:28:28;;;;;;;1.52;1.00;;;22.90;47.80;;;;;;5041096;28;20033;-69
2023/05/19 11:30:56;;;;;;;2.42;1.00;;;23.00;47.90;;;;;;5038103;28;20040;-69
2023/05/19 11:33:25;;;;;;;1.52;0.93;;;22.90;47.90;;;;;;5039029;28;20104;-69
2023/05/19 11:35:53;;;;;;;1.63;0.90;;;23.00;48.00;;;;;;5035452;28;20094;-70
2023/05/19 11:38:20;;;;;;;1.40;0.90;;;23.00;48.00;;;;;;5037491;28;20028;-70
2023/05/19 11:40:48;;;;;;;1.95;1.10;;;22.90;48.00;;;;;;5037035;28;20032;-69
2023/05/19 11:43:15;;;;;;;1.90;1.10;;;23.00;48.00;;;;;;5038234;28;20426;-69
2023/05/19 11:45:40;;;;;;;2.40;1.33;;;23.00;48.10;;;;;;5037109;28;20501;-68
2023/05/19 11:48:10;;;;;;;4.45;1.77;;;23.00;48.00;;;;;;5035829;28;20082;-69
2023/05/19 11:50:37;;;;;;;4.90;3.03;;;22.90;48.00;;;;;;5036548;28;20029;-68
2023/05/19 11:53:02;;;;;;;5.97;4.15;;;23.00;48.00;;;;;;5043996;28;20064;-69
2023/05/19 11:55:28;;;;;;;8.95;6.13;;;23.00;48.10;;;;;;5036512;28;20100;-68
2023/05/19 11:57:57;;;;;;;8.25;6.22;;;23.00;48.20;;;;;;5038955;28;20029;-69
2023/05/19 12:00:27;;;;;;;9.07;6.95;;;23.00;48.30;;;;;;5039806;28;20097;-69
2023/05/19 12:02:53;;;;;;;9.85;7.13;;;23.00;48.30;;;;;;5039864;28;20490;-69
2023/05/19 12:05:26;;;;;;;11.20;7.07;;;23.00;48.30;;;;;;5038970;28;20044;-69
2023/05/19 12:07:53;;;;;;;10.60;7.63;;;23.00;48.40;;;;;;5035294;28;20377;-69
2023/05/19 12:10:30;;;;;;;9.70;7.13;;;23.00;48.40;;;;;;5039223;28;20060;-69
2023/05/19 12:12:57;;;;;;;10.77;7.65;;;23.00;48.40;;;;;;5044315;28;20378;-69
2023/05/19 12:15:23;;;;;;;12.23;8.00;;;23.00;48.40;;;;;;5038396;28;20104;-69
2023/05/19 12:17:50;;;;;;;10.48;7.30;;;23.00;48.40;;;;;;5039401;28;20022;-69
2023/05/19 12:20:18;;;;;;;9.55;7.13;;;23.00;48.40;;;;;;5039107;28;20547;-69
2023/05/19 12:22:45;;;;;;;11.20;7.78;;;23.00;48.40;;;;;;5038684;28;20419;-68
2023/05/19 12:25:11;;;;;;;12.13;7.45;;;23.00;48.40;;;;;;5039092;28;20029;-69
2023/05/19 12:27:37;;;;;;;10.77;7.28;;;23.00;48.50;;;;;;5038000;28;20456;-68
2023/05/19 12:30:03;;;;;;;10.98;8.07;;;23.10;48.40;;;;;;5037302;28;20045;-68
2023/05/19 12:32:32;;;;;;;13.68;7.88;;;23.20;48.20;;;;;;5040230;28;20170;-68
2023/05/19 12:34:59;;;;;;;10.18;7.07;;;23.30;48.00;;;;;;5037513;28;20128;-69
2023/05/19 12:37:31;;;;;;;9.93;7.28;;;23.40;47.90;;;;;;5036572;28;20157;-68
2023/05/19 12:39:59;;;;;;;10.70;6.57;;;23.50;47.80;;;;;;5037938;28;20582;-69
2023/05/19 12:42:34;;;;;;;7.78;5.80;;;23.60;47.70;;;;;;5037314;28;20021;-63
2023/05/19 12:45:01;;;;;;;9.95;6.78;;;23.70;47.60;;;;;;5037657;28;20032;-68
2023/05/19 12:47:34;;;;;;;8.55;5.93;;;23.70;47.50;;;;;;5039858;28;20020;-67
2023/05/19 12:50:03;;;;;;;8.18;6.15;;;23.80;47.40;;;;;;5037779;28;20025;-68
2023/05/19 12:52:31;;;;;;;10.38;6.15;;;23.80;47.30;;;;;;5036515;28;20039;-69